createdAt,value
2019-05-14T00:02:02.552Z,5.40
2019-05-14T00:04:35.594Z,5.22
2019-05-14T00:07:12.169Z,5.67
2019-05-14T00:09:47.293Z,6.03
2019-05-14T00:12:22.418Z,5.73
2019-05-14T00:14:57.384Z,5.50
2019-05-14T00:17:37.861Z,5.60
2019-05-14T00:20:13.533Z,5.92
2019-05-14T00:22:52.212Z,5.87
2019-05-14T00:25:31.322Z,6.30
2019-05-14T00:28:04.995Z,8.50
2019-05-14T00:30:42.078Z,8.15
2019-05-14T00:33:15.658Z,7.92
2019-05-14T00:35:51.452Z,7.30
2019-05-14T00:38:25.737Z,6.92
2019-05-14T00:41:02.050Z,5.75
2019-05-14T00:43:37.758Z,5.53
2019-05-14T00:46:12.574Z,5.58
2019-05-14T00:48:51.252Z,6.37
2019-05-14T00:51:25.933Z,5.85
2019-05-14T00:54:01.719Z,6.50
2019-05-14T00:56:37.243Z,6.25
2019-05-14T00:59:11.944Z,6.20
2019-05-14T01:01:46.842Z,7.13
2019-05-14T01:04:22.274Z,6.93
2019-05-14T01:06:56.987Z,6.53
2019-05-14T01:09:31.632Z,7.40
2019-05-14T01:12:06.196Z,7.03
2019-05-14T01:14:42.345Z,6.65
2019-05-14T01:17:16.726Z,7.25
2019-05-14T01:19:51.372Z,7.37
2019-05-14T01:22:25.666Z,7.25
2019-05-14T01:25:01.686Z,7.50
2019-05-14T01:27:36.230Z,7.40
2019-05-14T01:30:12.446Z,7.72
2019-05-14T01:32:46.721Z,8.73
2019-05-14T01:35:22.216Z,7.83
2019-05-14T01:37:57.905Z,7.90
2019-05-14T01:40:33.492Z,7.42
2019-05-14T01:43:08.061Z,7.05
2019-05-14T01:45:42.366Z,7.28
2019-05-14T01:48:18.048Z,7.83
2019-05-14T01:50:52.755Z,8.05
2019-05-14T01:53:27.226Z,6.80
2019-05-14T01:56:04.351Z,5.58
2019-05-14T01:58:41.739Z,5.33
2019-05-14T02:01:21.685Z,5.67
2019-05-14T02:03:56.457Z,5.50
2019-05-14T02:06:34.238Z,5.80
2019-05-14T02:09:12.508Z,5.37
2019-05-14T02:11:53.676Z,5.37
2019-05-14T02:14:31.310Z,5.33
2019-05-14T02:17:05.894Z,5.40
2019-05-14T02:19:52.778Z,5.03
2019-05-14T02:22:36.192Z,5.22
2019-05-14T02:25:11.609Z,6.60
2019-05-14T02:27:47.995Z,7.03
2019-05-14T02:30:28.547Z,6.93
2019-05-14T02:32:59.605Z,6.83
2019-05-14T02:35:39.670Z,6.45
2019-05-14T02:38:13.076Z,5.58
2019-05-14T02:40:49.388Z,5.45
2019-05-14T02:43:23.479Z,6.10
2019-05-14T02:46:10.620Z,5.92
2019-05-14T02:48:33.902Z,6.45
2019-05-14T02:51:10.497Z,6.55
2019-05-14T02:53:44.275Z,6.17
2019-05-14T02:56:20.398Z,5.95
2019-05-14T02:58:54.664Z,7.67
2019-05-14T03:01:30.170Z,6.83
2019-05-14T03:04:04.980Z,7.08
2019-05-14T03:06:41.984Z,6.85
2019-05-14T03:09:20.074Z,6.47
2019-05-14T03:11:53.818Z,6.97
2019-05-14T03:14:33.250Z,6.85
2019-05-14T03:17:10.439Z,7.25
2019-05-14T03:19:50.396Z,6.97
2019-05-14T03:22:31.950Z,6.85
2019-05-14T03:25:00.867Z,7.20
2019-05-14T03:27:35.702Z,7.08
2019-05-14T03:30:12.328Z,6.90
2019-05-14T03:32:52.161Z,7.37
2019-05-14T03:35:32.804Z,7.33
2019-05-14T03:38:00.539Z,7.67
2019-05-14T03:40:35.272Z,7.00
2019-05-14T03:43:10.119Z,7.37
2019-05-14T03:45:44.881Z,6.87
2019-05-14T03:48:19.989Z,6.72
2019-05-14T03:50:55.373Z,6.22
2019-05-14T03:53:30.099Z,6.42
2019-05-14T03:56:05.266Z,6.30
2019-05-14T03:58:39.545Z,6.92
2019-05-14T04:01:13.825Z,6.20
2019-05-14T04:03:50.389Z,6.35
2019-05-14T04:06:34.145Z,5.87
2019-05-14T04:09:10.779Z,6.12
2019-05-14T04:11:46.318Z,6.55
2019-05-14T04:14:21.249Z,5.95
2019-05-14T04:17:05.280Z,6.53
2019-05-14T04:19:33.632Z,7.08
2019-05-14T04:22:10.028Z,7.05
2019-05-14T04:24:44.962Z,5.90
2019-05-14T04:27:20.303Z,6.03
2019-05-14T04:29:58.896Z,6.35
2019-05-14T04:32:33.527Z,6.37
2019-05-14T04:35:09.538Z,7.40
2019-05-14T04:37:44.277Z,6.97
2019-05-14T04:40:19.973Z,6.83
2019-05-14T04:42:54.592Z,6.97
2019-05-14T04:45:29.799Z,7.42
2019-05-14T04:48:24.198Z,6.62
2019-05-14T04:50:41.371Z,7.12
2019-05-14T04:53:33.572Z,7.05
2019-05-14T04:56:09.753Z,7.30
2019-05-14T04:58:49.249Z,7.90
2019-05-14T05:01:24.208Z,7.08
2019-05-14T05:04:00.657Z,7.30
2019-05-14T05:06:42.285Z,8.10
2019-05-14T05:09:19.774Z,6.78
2019-05-14T05:11:54.011Z,7.10
2019-05-14T05:14:29.661Z,7.60
2019-05-14T05:17:04.293Z,7.03
2019-05-14T05:19:44.779Z,7.55
2019-05-14T05:22:15.776Z,6.87
2019-05-14T05:24:50.684Z,7.53
2019-05-14T05:27:25.628Z,7.78
2019-05-14T05:30:00.353Z,7.58
2019-05-14T05:32:35.387Z,7.78
2019-05-14T05:35:10.192Z,7.70
2019-05-14T05:37:44.710Z,7.90
2019-05-14T05:40:19.841Z,8.40
2019-05-14T05:42:54.526Z,7.95
2019-05-14T05:45:29.164Z,9.00
2019-05-14T05:48:04.736Z,8.93
2019-05-14T05:50:39.754Z,9.70
2019-05-14T05:53:14.262Z,9.85
2019-05-14T05:55:50.081Z,8.67
2019-05-14T05:58:24.897Z,8.93
2019-05-14T06:00:59.847Z,8.48
2019-05-14T06:03:35.435Z,9.05
2019-05-14T06:06:13.398Z,9.10
2019-05-14T06:08:46.075Z,8.30
2019-05-14T06:11:20.524Z,8.93
2019-05-14T06:13:55.272Z,8.40
2019-05-14T06:16:38.480Z,8.85
2019-05-14T06:19:13.326Z,8.18
2019-05-14T06:21:49.078Z,8.18
2019-05-14T06:24:24.219Z,9.03
2019-05-14T06:26:59.116Z,8.93
2019-05-14T06:29:33.586Z,8.70
2019-05-14T06:32:09.255Z,8.88
2019-05-14T06:34:44.307Z,9.18
2019-05-14T06:37:19.809Z,9.70
2019-05-14T06:39:54.775Z,9.93
2019-05-14T06:42:29.217Z,9.70
2019-05-14T06:45:03.791Z,9.35
2019-05-14T06:47:39.407Z,10.13
2019-05-14T06:50:14.114Z,8.80
2019-05-14T06:52:49.209Z,9.98
2019-05-14T06:55:23.831Z,9.80
2019-05-14T06:57:58.615Z,9.73
2019-05-14T07:00:34.797Z,9.90
2019-05-14T07:03:10.266Z,9.18
2019-05-14T07:05:44.697Z,9.05
2019-05-14T07:08:19.174Z,11.00
2019-05-14T07:10:53.692Z,10.23
2019-05-14T07:13:29.256Z,10.08
2019-05-14T07:16:04.021Z,10.28
2019-05-14T07:18:50.706Z,9.30
2019-05-14T07:21:14.753Z,10.05
2019-05-14T07:23:49.533Z,10.38
2019-05-14T07:26:23.868Z,9.88
2019-05-14T07:28:59.051Z,10.17
2019-05-14T07:31:33.912Z,10.28
2019-05-14T07:34:09.021Z,10.28
2019-05-14T07:36:43.719Z,9.90
2019-05-14T07:39:18.755Z,9.48
2019-05-14T07:41:53.483Z,9.23
2019-05-14T07:44:29.616Z,9.40
2019-05-14T07:47:05.212Z,8.73
2019-05-14T07:49:40.164Z,9.58
2019-05-14T07:52:14.996Z,9.45
2019-05-14T07:54:49.625Z,9.93
2019-05-14T07:57:24.157Z,9.55
2019-05-14T07:59:58.995Z,10.88
2019-05-14T08:02:33.842Z,9.48
2019-05-14T08:05:08.822Z,9.65
2019-05-14T08:07:43.573Z,10.13
2019-05-14T08:10:18.603Z,9.93
2019-05-14T08:12:53.456Z,9.83
2019-05-14T08:15:28.599Z,9.03
2019-05-14T08:18:03.184Z,8.45
2019-05-14T08:20:38.012Z,9.03
2019-05-14T08:23:12.260Z,9.75
2019-05-14T08:25:48.128Z,8.90
2019-05-14T08:28:23.169Z,9.70
2019-05-14T08:30:58.506Z,9.53
2019-05-14T08:33:34.586Z,9.08
2019-05-14T08:36:09.338Z,8.53
2019-05-14T08:38:45.572Z,8.45
2019-05-14T08:41:20.886Z,8.50
2019-05-14T08:43:56.039Z,8.60
2019-05-14T08:46:30.516Z,8.28
2019-05-14T08:49:05.094Z,8.23
2019-05-14T08:51:39.439Z,7.85
2019-05-14T08:54:14.289Z,8.98
2019-05-14T08:56:49.210Z,8.13
2019-05-14T08:59:23.787Z,8.70
2019-05-14T09:02:06.287Z,8.23
2019-05-14T09:04:34.453Z,8.05
2019-05-14T09:07:09.631Z,8.80
2019-05-14T09:09:44.576Z,7.45
2019-05-14T09:19:15.433Z,8.38
2019-05-14T09:21:50.148Z,9.03
2019-05-14T09:24:24.895Z,8.53
2019-05-14T09:26:59.729Z,8.78
2019-05-14T09:29:34.492Z,8.70
2019-05-14T09:32:09.700Z,9.70
2019-05-14T09:34:44.452Z,8.95
2019-05-14T09:37:19.397Z,8.60
2019-05-14T09:39:54.005Z,8.28
2019-05-14T09:42:28.745Z,7.75
2019-05-14T09:45:03.763Z,7.87
2019-05-14T09:47:41.216Z,7.62
2019-05-14T09:50:22.019Z,8.18
2019-05-14T09:52:52.335Z,7.80
2019-05-14T09:55:28.189Z,8.03
2019-05-14T09:58:02.868Z,7.70
2019-05-14T10:00:38.969Z,7.63
2019-05-14T10:03:13.532Z,7.20
2019-05-14T10:05:50.181Z,7.40
2019-05-14T10:08:24.565Z,7.03
2019-05-14T10:11:00.592Z,7.08
2019-05-14T10:13:35.872Z,7.28
2019-05-14T10:16:10.136Z,7.17
2019-05-14T10:18:44.690Z,6.83
2019-05-14T10:21:19.843Z,7.05
2019-05-14T10:23:54.614Z,7.20
2019-05-14T10:26:29.136Z,7.12
2019-05-14T10:29:04.518Z,6.47
2019-05-14T10:31:39.875Z,7.00
2019-05-14T10:34:14.034Z,6.97
2019-05-14T10:36:48.921Z,6.90
2019-05-14T10:39:24.015Z,6.30
2019-05-14T10:41:58.217Z,7.65
2019-05-14T10:44:32.912Z,7.20
2019-05-14T10:47:09.262Z,7.08
2019-05-14T10:49:43.718Z,7.33
2019-05-14T10:52:19.719Z,7.10
2019-05-14T10:54:56.297Z,7.33
2019-05-14T10:57:33.388Z,7.53
2019-05-14T11:00:09.108Z,8.00
2019-05-14T11:02:44.322Z,8.15
2019-05-14T11:05:19.254Z,8.50
2019-05-14T11:07:54.063Z,8.63
2019-05-14T11:10:29.792Z,8.48
2019-05-14T11:13:04.685Z,8.08
2019-05-14T11:15:39.638Z,7.45
2019-05-14T11:18:14.664Z,7.15
2019-05-14T11:20:51.457Z,7.80
2019-05-14T11:23:25.970Z,8.63
2019-05-14T11:26:00.480Z,8.03
2019-05-14T11:28:34.966Z,8.08
2019-05-14T11:31:10.581Z,9.20
2019-05-14T11:33:45.452Z,9.38
2019-05-14T11:36:20.163Z,10.78
2019-05-14T11:38:55.300Z,10.45
2019-05-14T11:41:32.901Z,11.75
2019-05-14T11:44:17.801Z,11.15
2019-05-14T11:46:58.124Z,10.48
2019-05-14T11:49:28.800Z,10.63
2019-05-14T11:52:07.734Z,9.18
2019-05-14T11:54:40.902Z,9.55
2019-05-14T11:57:15.359Z,9.53
2019-05-14T11:59:53.314Z,8.75
2019-05-14T12:02:29.143Z,8.80
2019-05-14T12:05:04.003Z,9.20
2019-05-14T12:07:50.962Z,8.25
2019-05-14T12:10:38.713Z,8.15
2019-05-14T12:13:14.045Z,8.68
2019-05-14T12:15:59.252Z,9.00
2019-05-14T12:18:35.586Z,8.48
2019-05-14T12:21:18.651Z,9.25
2019-05-14T12:24:06.229Z,8.88
2019-05-14T12:27:27.547Z,9.53
2019-05-14T12:29:33.726Z,10.27
2019-05-14T12:32:12.541Z,10.07
2019-05-14T12:34:52.994Z,10.78
2019-05-14T12:37:28.927Z,11.08
2019-05-14T12:40:03.932Z,10.80
2019-05-14T12:42:39.653Z,11.00
2019-05-14T12:45:18.802Z,11.05
2019-05-14T12:47:51.718Z,11.53
2019-05-14T12:50:26.829Z,11.70
2019-05-14T12:53:02.042Z,11.35
2019-05-14T12:55:39.820Z,11.38
2019-05-14T12:58:20.715Z,11.38
2019-05-14T13:00:55.598Z,11.90
2019-05-14T13:03:34.978Z,11.48
2019-05-14T13:06:10.262Z,10.93
2019-05-14T13:08:48.962Z,11.57
2019-05-14T13:11:22.324Z,10.78
2019-05-14T13:13:59.317Z,10.45
2019-05-14T13:16:39.657Z,10.90
2019-05-14T13:19:20.498Z,11.63
2019-05-14T13:22:12.216Z,10.18
2019-05-14T13:24:49.064Z,10.55
2019-05-14T13:27:33.644Z,10.75
2019-05-14T13:30:11.276Z,11.03
2019-05-14T13:32:48.922Z,10.70
2019-05-14T13:35:24.900Z,11.38
2019-05-14T13:38:02.028Z,11.43
2019-05-14T13:40:49.193Z,12.23
2019-05-14T13:43:30.556Z,12.07
2019-05-14T13:46:07.274Z,12.88
2019-05-14T13:48:46.074Z,13.75
2019-05-14T13:51:20.772Z,13.53
2019-05-14T13:53:58.759Z,15.35
2019-05-14T13:56:32.318Z,16.57
2019-05-14T13:59:09.083Z,17.32
2019-05-14T14:01:42.914Z,18.62
2019-05-14T14:04:18.341Z,18.70
2019-05-14T14:06:55.860Z,19.42
2019-05-14T14:09:33.388Z,20.82
2019-05-14T14:12:08.547Z,22.45
2019-05-14T14:14:44.545Z,24.25
2019-05-14T14:17:19.704Z,24.87
2019-05-14T14:19:55.843Z,25.92
2019-05-14T14:22:32.411Z,27.00
2019-05-14T14:25:08.843Z,25.77
2019-05-14T14:27:43.295Z,28.47
2019-05-14T14:30:19.534Z,26.00
2019-05-14T14:32:54.481Z,25.05
2019-05-14T14:35:31.072Z,24.00
2019-05-14T14:38:08.699Z,23.35
2019-05-14T14:40:48.588Z,23.32
2019-05-14T14:43:20.632Z,22.22
2019-05-14T14:45:55.259Z,22.05
2019-05-14T14:48:30.533Z,20.92
2019-05-14T14:51:08.343Z,18.92
2019-05-14T14:53:53.309Z,19.73
2019-05-14T14:56:18.908Z,18.62
2019-05-14T14:58:54.999Z,18.87
2019-05-14T15:01:30.564Z,18.23
2019-05-14T15:04:05.413Z,20.10
2019-05-14T15:06:40.199Z,22.75
2019-05-14T15:09:14.722Z,24.57
2019-05-14T15:11:49.678Z,26.02
2019-05-14T15:14:24.370Z,24.72
2019-05-14T15:16:58.862Z,24.43
2019-05-14T15:19:33.276Z,23.05
2019-05-14T15:22:08.780Z,22.45
2019-05-14T15:24:43.381Z,21.95
2019-05-14T15:27:18.877Z,20.27
2019-05-14T15:29:53.787Z,21.20
2019-05-14T15:32:30.226Z,25.72
2019-05-14T15:35:04.732Z,30.43
2019-05-14T15:37:42.844Z,30.72
2019-05-14T15:40:15.998Z,33.65
2019-05-14T15:42:51.666Z,33.05
2019-05-14T15:45:28.650Z,31.55
2019-05-14T15:48:03.919Z,30.60
2019-05-14T15:50:38.859Z,28.90
2019-05-14T15:53:14.036Z,26.80
2019-05-14T15:55:49.853Z,24.92
2019-05-14T15:58:24.384Z,25.65
2019-05-14T16:01:01.177Z,26.15
2019-05-14T16:03:35.976Z,25.88
2019-05-14T16:06:11.149Z,26.17
2019-05-14T16:08:48.639Z,24.05
2019-05-14T16:11:22.019Z,23.45
2019-05-14T16:13:56.575Z,24.60
2019-05-14T16:16:31.121Z,23.67
2019-05-14T16:19:08.081Z,23.45
2019-05-14T16:21:41.825Z,23.47
2019-05-14T16:24:22.456Z,22.00
2019-05-14T16:26:59.436Z,21.30
2019-05-14T16:29:44.179Z,21.23
2019-05-14T16:32:12.856Z,22.30
2019-05-14T16:34:48.885Z,26.00
2019-05-14T16:37:28.047Z,24.27
2019-05-14T16:40:02.608Z,24.63
2019-05-14T16:42:39.778Z,25.45
2019-05-14T16:45:14.478Z,25.00
2019-05-14T16:47:49.325Z,26.07
2019-05-14T16:50:23.890Z,26.25
2019-05-14T16:52:58.890Z,28.83
2019-05-14T16:55:33.834Z,28.25
2019-05-14T16:58:08.985Z,28.27
2019-05-14T17:00:43.712Z,28.55
2019-05-14T17:03:19.043Z,26.40
2019-05-14T17:05:53.999Z,25.77
2019-05-14T17:08:28.678Z,23.70
2019-05-14T17:11:03.154Z,22.58
2019-05-14T17:13:38.150Z,20.20
2019-05-14T17:16:13.364Z,19.17
2019-05-14T17:18:48.604Z,19.82
2019-05-14T17:21:23.639Z,20.10
2019-05-14T17:23:58.188Z,20.32
2019-05-14T17:26:35.020Z,19.03
2019-05-14T17:29:10.206Z,18.85
2019-05-14T17:31:45.157Z,19.62
2019-05-14T17:34:19.698Z,18.40
2019-05-14T17:36:54.546Z,17.45
2019-05-14T17:39:29.221Z,17.57
2019-05-14T17:42:04.960Z,16.00
2019-05-14T17:44:39.217Z,16.73
2019-05-14T17:47:14.899Z,16.77
2019-05-14T17:49:49.341Z,17.45
2019-05-14T17:52:24.812Z,17.17
2019-05-14T17:54:59.729Z,16.77
2019-05-14T17:57:35.823Z,16.45
2019-05-14T18:00:11.253Z,14.53
2019-05-14T18:02:48.555Z,12.82
2019-05-14T18:05:22.929Z,11.00
2019-05-14T18:07:59.364Z,10.18
2019-05-14T18:10:34.582Z,10.95
2019-05-14T18:13:09.422Z,9.43
2019-05-14T18:15:44.387Z,9.88
2019-05-14T18:18:19.172Z,8.48
2019-05-14T18:20:54.154Z,8.48
2019-05-14T18:23:29.072Z,7.90
2019-05-14T18:26:08.634Z,8.53
2019-05-14T18:28:41.369Z,8.10
2019-05-14T18:31:19.618Z,7.95
2019-05-14T18:33:52.232Z,7.92
2019-05-14T18:36:28.502Z,7.60
2019-05-14T18:39:03.240Z,7.90
2019-05-14T18:41:38.937Z,7.35
2019-05-14T18:44:14.041Z,7.67
2019-05-14T18:46:48.734Z,7.53
2019-05-14T18:49:23.876Z,7.83
2019-05-14T18:51:59.687Z,7.83
2019-05-14T18:54:34.440Z,7.45
2019-05-14T18:57:12.012Z,7.97
2019-05-14T18:59:44.806Z,8.30
2019-05-14T19:02:21.026Z,7.63
2019-05-14T19:04:57.770Z,7.60
2019-05-14T19:07:32.122Z,7.73
2019-05-14T19:10:09.115Z,7.55
2019-05-14T19:12:42.657Z,7.27
2019-05-14T19:15:18.502Z,8.00
2019-05-14T19:17:53.297Z,7.47
2019-05-14T19:20:28.270Z,7.42
2019-05-14T19:23:02.878Z,7.33
2019-05-14T19:25:38.907Z,7.20
2019-05-14T19:28:13.723Z,7.33
2019-05-14T19:30:48.938Z,7.70
2019-05-14T19:33:23.710Z,7.25
2019-05-14T19:35:58.341Z,7.33
2019-05-14T19:38:32.913Z,7.33
2019-05-14T19:41:08.609Z,7.73
2019-05-14T19:43:43.805Z,7.35
2019-05-14T19:46:18.498Z,7.80
2019-05-14T19:48:53.011Z,7.62
2019-05-14T19:51:27.977Z,7.85
2019-05-14T19:54:02.663Z,7.80
2019-05-14T19:56:52.415Z,7.30
2019-05-14T19:59:13.538Z,7.60
2019-05-14T20:01:48.739Z,7.15
2019-05-14T20:04:23.524Z,7.70
2019-05-14T20:06:57.975Z,7.60
2019-05-14T20:09:32.853Z,7.70
2019-05-14T20:12:07.320Z,7.25
2019-05-14T20:14:41.712Z,8.23
2019-05-14T20:17:16.283Z,7.53
2019-05-14T20:19:50.716Z,7.83
2019-05-14T20:22:25.409Z,7.83
2019-05-14T20:24:59.997Z,8.15
2019-05-14T20:27:34.575Z,8.23
2019-05-14T20:30:09.544Z,7.92
2019-05-14T20:32:44.429Z,8.57
2019-05-14T20:35:30.409Z,8.30
2019-05-14T20:37:54.929Z,7.87
2019-05-14T20:40:29.194Z,8.20
2019-05-14T20:43:03.225Z,8.00
2019-05-14T20:45:39.133Z,7.78
2019-05-14T20:48:14.055Z,8.05
2019-05-14T20:50:49.332Z,9.40
2019-05-14T20:53:25.850Z,9.05
2019-05-14T20:56:00.543Z,8.90
2019-05-14T20:58:34.910Z,8.90
2019-05-14T21:01:11.479Z,8.70
2019-05-14T21:03:47.899Z,9.40
2019-05-14T21:06:21.689Z,9.83
2019-05-14T21:08:58.477Z,9.10
2019-05-14T21:11:33.027Z,9.83
2019-05-14T21:14:08.961Z,11.53
2019-05-14T21:16:43.787Z,11.95
2019-05-14T21:19:18.055Z,14.53
2019-05-14T21:21:52.910Z,14.00
2019-05-14T21:24:29.496Z,14.47
2019-05-14T21:27:03.454Z,13.75
2019-05-14T21:29:38.513Z,14.53
2019-05-14T21:32:13.271Z,14.53
2019-05-14T21:34:49.137Z,14.60
2019-05-14T21:37:23.879Z,16.93
2019-05-14T21:39:59.057Z,13.83
2019-05-14T21:42:33.691Z,14.47
2019-05-14T21:45:09.841Z,18.10
2019-05-14T21:47:43.794Z,15.17
2019-05-14T21:50:18.466Z,15.73
2019-05-14T21:52:53.280Z,15.53
2019-05-14T21:55:33.782Z,15.20
2019-05-14T21:58:13.869Z,15.03
2019-05-14T22:00:52.250Z,15.53
2019-05-14T22:03:29.152Z,14.87
2019-05-14T22:06:03.792Z,14.70
2019-05-14T22:08:39.401Z,14.87
2019-05-14T22:11:14.740Z,14.60
2019-05-14T22:13:49.733Z,13.40
2019-05-14T22:16:24.198Z,13.25
2019-05-14T22:18:59.341Z,13.57
2019-05-14T22:21:34.078Z,12.77
2019-05-14T22:24:08.636Z,13.73
2019-05-14T22:26:43.280Z,12.75
2019-05-14T22:29:17.961Z,12.47
2019-05-14T22:31:52.562Z,13.03
2019-05-14T22:34:34.372Z,13.13
2019-05-14T22:37:08.905Z,12.28
2019-05-14T22:40:04.643Z,12.23
2019-05-14T22:42:39.383Z,11.48
2019-05-14T22:45:35.812Z,13.47
2019-05-14T22:48:10.342Z,11.63
2019-05-14T22:50:45.285Z,12.77
2019-05-14T22:53:19.944Z,12.50
2019-05-14T22:55:54.540Z,12.27
2019-05-14T22:58:29.065Z,11.18
2019-05-14T23:01:14.416Z,13.00
2019-05-14T23:03:39.825Z,11.93
2019-05-14T23:06:14.724Z,11.93
2019-05-14T23:08:49.961Z,12.03
2019-05-14T23:11:24.597Z,11.93
2019-05-14T23:13:59.534Z,12.13
2019-05-14T23:16:38.254Z,12.00
2019-05-14T23:19:09.973Z,12.07
2019-05-14T23:21:44.905Z,12.53
2019-05-14T23:24:20.160Z,11.88
2019-05-14T23:26:58.334Z,12.87
2019-05-14T23:29:31.967Z,12.10
2019-05-14T23:32:08.129Z,13.17
2019-05-14T23:34:42.592Z,12.33
2019-05-14T23:37:18.140Z,12.00
2019-05-14T23:39:52.942Z,11.90
2019-05-14T23:42:28.059Z,12.40
2019-05-14T23:45:02.800Z,12.35
2019-05-14T23:47:38.348Z,12.20
2019-05-14T23:50:13.361Z,12.13
2019-05-14T23:52:49.381Z,11.30
2019-05-14T23:55:24.564Z,12.05
2019-05-14T23:57:59.022Z,12.87
